Time;durP1;ratioP1;P1;durP2;ratioP2;P2;SDS_P1;SDS_P2;PMS_P1;PMS_P2;Temp;Humidity;BMP_temperature;BMP_pressure;BME280_temperature;BME280_humidity;BME280_pressure;Samples;Min_cycle;Max_cycle;Signal;HPM_P1;HPM_P2
2021/01/16 00:00:36;;;;;;;;;;;;;;;-4.51;94.04;93754.91;1061110;56;20253;-86
2021/01/16 00:01:38;;;;;;;;;;;;;;;-4.58;94.40;93753.50;1065781;55;20162;-85
2021/01/16 00:02:39;;;;;;;;;;;;;;;-4.56;93.56;93755.84;1063174;56;20586;-85
2021/01/16 00:03:39;;;;;;;;;;;;;;;-4.54;94.75;93763.34;1059095;56;20167;-85
2021/01/16 00:04:39;;;;;;;;;;;;;;;-4.54;93.60;93761.50;1063036;56;20250;-84
2021/01/16 00:05:40;;;;;;;;;;;;;;;-4.56;93.94;93755.84;1060889;56;20158;-85
2021/01/16 00:06:41;;;;;;;;;;;;;;;-4.55;93.60;93757.34;1063167;56;20200;-84
2021/01/16 00:07:42;;;;;;;;;;;;;;;-4.63;94.30;93756.25;1067069;55;20172;-85
2021/01/16 00:08:43;;;;;;;;;;;;;;;-4.58;94.17;93755.34;1069780;55;20252;-85
2021/01/16 00:09:44;;;;;;;;;;;;;;;-4.57;93.81;93760.25;1065310;55;20150;-85
2021/01/16 00:10:51;;;;;;;;;;;;;;;-4.56;94.28;93756.59;1063319;56;20150;-85
2021/01/16 00:11:52;;;;;;;;;;;;;;;-4.57;93.46;93757.66;1067714;55;20769;-85
2021/01/16 00:12:52;;;;;;;;;;;;;;;-4.64;93.84;93756.59;1065187;55;20165;-85
2021/01/16 00:13:53;;;;;;;;;;;;;;;-4.67;94.58;93751.97;1060487;56;20143;-85
2021/01/16 00:14:53;;;;;;;;;;;;;;;-4.69;94.91;93754.12;1067084;55;20648;-84
2021/01/16 00:15:54;;;;;;;;;;;;;;;-4.65;94.85;93755.06;1065058;55;20158;-86
2021/01/16 00:16:55;;;;;;;;;;;;;;;-4.59;94.88;93751.97;1064969;55;20169;-85
2021/01/16 00:18:02;;;;;;;;;;;;;;;-4.58;95.20;93756.13;1067144;55;20145;-85
2021/01/16 00:19:04;;;;;;;;;;;;;;;-4.60;94.67;93754.91;1061439;56;20252;-85
2021/01/16 00:20:09;;;;;;;;;;;;;;;-4.66;94.49;93751.66;1061147;56;20169;-85
2021/01/16 00:21:14;;;;;;;;;;;;;;;-4.60;94.57;93754.91;1061437;56;20244;-85
2021/01/16 00:22:16;;;;;;;;;;;;;;;-4.61;94.48;93755.94;1063449;56;20170;-84
2021/01/16 00:23:17;;;;;;;;;;;;;;;-4.52;94.43;93745.53;1062985;56;20240;-84
2021/01/16 00:24:19;;;;;;;;;;;;;;;-4.47;93.24;93753.22;1065267;55;20197;-85
2021/01/16 00:25:21;;;;;;;;;;;;;;;-4.48;93.53;93751.69;1062999;56;20267;-84
2021/01/16 00:26:22;;;;;;;;;;;;;;;-4.60;93.87;93749.69;1061130;56;20167;-85
2021/01/16 00:27:22;;;;;;;;;;;;;;;-4.49;93.35;93748.31;1060966;56;20249;-85
2021/01/16 00:28:28;;;;;;;;;;;;;;;-4.50;93.65;93753.84;1060886;56;20244;-85
2021/01/16 00:29:30;;;;;;;;;;;;;;;-4.48;92.98;93749.84;1061151;56;20154;-86
2021/01/16 00:30:34;;;;;;;;;;;;;;;-4.50;94.30;93749.38;1061319;56;20182;-85
2021/01/16 00:31:38;;;;;;;;;;;;;;;-4.52;94.53;93748.94;1061446;56;20248;-84
2021/01/16 00:32:41;;;;;;;;;;;;;;;-4.48;94.63;93746.47;1061535;56;20214;-84
2021/01/16 00:33:42;;;;;;;;;;;;;;;-4.49;93.63;93740.47;1059553;56;20186;-85
2021/01/16 00:34:44;;;;;;;;;;;;;;;-4.52;93.59;93748.12;1061367;56;20251;-86
2021/01/16 00:35:45;;;;;;;;;;;;;;;-4.54;94.17;93745.84;1061390;56;20201;-85
2021/01/16 00:36:46;;;;;;;;;;;;;;;-4.57;93.70;93746.44;1061128;56;20159;-85
2021/01/16 00:37:48;;;;;;;;;;;;;;;-4.58;95.21;93750.91;1063414;56;20185;-85
2021/01/16 00:38:49;;;;;;;;;;;;;;;-4.65;94.69;93753.22;1061346;56;20679;-83
2021/01/16 00:39:49;;;;;;;;;;;;;;;-4.62;94.64;93742.16;1063514;56;20281;-86
2021/01/16 00:40:50;;;;;;;;;;;;;;;-4.58;95.03;93750.91;1065447;55;20996;-85
2021/01/16 00:41:50;;;;;;;;;;;;;;;-4.61;94.90;93748.12;1065914;55;20165;-84
2021/01/16 00:42:53;;;;;;;;;;;;;;;-4.59;95.19;93749.38;1061583;56;20138;-86
2021/01/16 00:43:54;;;;;;;;;;;;;;;-4.56;95.04;93748.00;1059645;56;20163;-85
2021/01/16 00:44:55;;;;;;;;;;;;;;;-4.64;94.61;93748.75;1059270;56;20613;-85
2021/01/16 00:45:56;;;;;;;;;;;;;;;-4.60;94.29;93741.88;1063733;56;20190;-84
2021/01/16 00:46:57;;;;;;;;;;;;;;;-4.59;94.38;93744.16;1059415;56;20158;-85
2021/01/16 00:48:05;;;;;;;;;;;;;;;-4.58;93.98;93745.69;1059192;56;20282;-85
2021/01/16 00:49:08;;;;;;;;;;;;;;;-4.59;94.66;93741.53;1062267;56;21187;-84
2021/01/16 00:50:11;;;;;;;;;;;;;;;-4.56;94.61;93745.41;1065900;55;20153;-85
2021/01/16 00:51:11;;;;;;;;;;;;;;;-4.56;94.59;93748.78;1065533;55;20658;-86
2021/01/16 00:52:13;;;;;;;;;;;;;;;-4.54;94.09;93751.06;1063302;56;20206;-86
2021/01/16 00:53:14;;;;;;;;;;;;;;;-4.45;93.64;93745.84;1061286;56;20249;-85
2021/01/16 00:54:15;;;;;;;;;;;;;;;-4.50;93.09;93746.78;1065799;55;20179;-84
2021/01/16 00:55:15;;;;;;;;;;;;;;;-4.61;93.90;93751.53;1063411;56;20154;-86
2021/01/16 00:56:16;;;;;;;;;;;;;;;-4.53;94.01;93751.81;1065555;55;20158;-86
2021/01/16 00:57:16;;;;;;;;;;;;;;;-4.59;93.37;93751.22;1065538;55;20154;-86
2021/01/16 00:58:18;;;;;;;;;;;;;;;-4.56;94.17;93755.84;1061323;56;20170;-85
2021/01/16 00:59:19;;;;;;;;;;;;;;;-4.58;93.26;93752.75;1065576;55;20266;-86
2021/01/16 01:00:21;;;;;;;;;;;;;;;-4.62;93.63;93752.56;1061283;56;20647;-85
2021/01/16 01:01:22;;;;;;;;;;;;;;;-4.63;93.94;93753.66;1063719;55;20173;-85
2021/01/16 01:02:23;;;;;;;;;;;;;;;-4.59;94.43;93754.59;1063382;56;20277;-85
2021/01/16 01:03:23;;;;;;;;;;;;;;;-4.60;94.45;93755.66;1063228;56;20178;-86
2021/01/16 01:04:24;;;;;;;;;;;;;;;-4.63;94.52;93756.25;1061075;56;20170;-85
2021/01/16 01:05:24;;;;;;;;;;;;;;;-4.61;94.23;93754.12;1061305;56;20209;-88
2021/01/16 01:06:25;;;;;;;;;;;;;;;-4.55;95.02;93754.75;1065571;55;20184;-86
2021/01/16 01:07:25;;;;;;;;;;;;;;;-4.64;94.37;93761.78;1066785;55;20165;-84
2021/01/16 01:08:29;;;;;;;;;;;;;;;-4.62;94.48;93757.03;1063343;56;20146;-86
2021/01/16 01:09:29;;;;;;;;;;;;;;;-4.60;93.75;93758.28;1061167;56;20163;-85
2021/01/16 01:10:31;;;;;;;;;;;;;;;-4.62;93.11;93760.41;1061152;56;20150;-86
2021/01/16 01:11:31;;;;;;;;;;;;;;;-4.61;93.93;93761.97;1061049;56;20170;-84
2021/01/16 01:12:32;;;;;;;;;;;;;;;-4.61;94.01;93759.34;1061314;56;20654;-85
2021/01/16 01:13:33;;;;;;;;;;;;;;;-4.58;94.35;93758.72;1061313;56;20162;-85
2021/01/16 01:14:33;;;;;;;;;;;;;;;-4.64;95.10;93757.34;1061284;56;20155;-85
2021/01/16 01:15:35;;;;;;;;;;;;;;;-4.62;94.17;93755.19;1061309;56;20154;-85
2021/01/16 01:16:35;;;;;;;;;;;;;;;-4.63;94.75;93753.66;1063426;56;20654;-85
2021/01/16 01:17:36;;;;;;;;;;;;;;;-4.61;95.01;93767.19;1059327;56;20181;-85
2021/01/16 01:18:36;;;;;;;;;;;;;;;-4.53;93.96;93754.44;1063569;56;20185;-84
2021/01/16 01:19:38;;;;;;;;;;;;;;;-4.51;93.59;93762.75;1063482;56;20654;-86
2021/01/16 01:20:39;;;;;;;;;;;;;;;-4.52;92.93;93756.75;1061245;56;20169;-86
2021/01/16 01:21:39;;;;;;;;;;;;;;;-4.49;93.45;93752.75;1063388;56;20757;-87
2021/01/16 01:22:40;;;;;;;;;;;;;;;-4.57;93.27;93759.50;1063219;56;20279;-85
2021/01/16 01:23:40;;;;;;;;;;;;;;;-4.43;93.35;93748.94;1061383;56;20228;-84
2021/01/16 01:24:41;;;;;;;;;;;;;;;-4.43;91.99;93752.31;1063494;56;20186;-84
2021/01/16 01:25:41;;;;;;;;;;;;;;;-4.48;92.32;93754.28;1065431;55;20170;-84
2021/01/16 01:26:42;;;;;;;;;;;;;;;-4.49;92.67;93748.31;1063225;56;20193;-84
2021/01/16 01:27:47;;;;;;;;;;;;;;;-4.55;92.72;93754.75;1061204;56;20154;-85
2021/01/16 01:28:48;;;;;;;;;;;;;;;-4.53;93.76;93752.59;1063165;56;20180;-85
2021/01/16 01:29:49;;;;;;;;;;;;;;;-4.56;93.80;93751.37;1061000;56;20572;-86
2021/01/16 01:30:53;;;;;;;;;;;;;;;-4.60;92.82;93747.84;1061376;56;20146;-84
2021/01/16 01:31:53;;;;;;;;;;;;;;;-4.56;93.08;93758.44;1061349;56;20174;-85
2021/01/16 01:32:55;;;;;;;;;;;;;;;-4.66;92.92;93751.66;1061143;56;20174;-85
2021/01/16 01:33:55;;;;;;;;;;;;;;;-4.66;93.91;93759.47;1063033;56;20181;-85
2021/01/16 01:34:56;;;;;;;;;;;;;;;-4.63;93.96;93766.69;1063240;56;20189;-85
2021/01/16 01:35:56;;;;;;;;;;;;;;;-4.59;93.55;93757.19;1063113;56;20169;-85
2021/01/16 01:36:56;;;;;;;;;;;;;;;-4.61;93.93;93763.78;1062981;56;20162;-85
2021/01/16 01:37:57;;;;;;;;;;;;;;;-4.61;92.96;93759.34;1061046;56;20980;-84
2021/01/16 01:38:58;;;;;;;;;;;;;;;-4.54;93.37;93758.87;1058740;56;20167;-85
2021/01/16 01:40:00;;;;;;;;;;;;;;;-4.50;92.35;93756.44;1060991;56;20222;-86
2021/01/16 01:41:01;;;;;;;;;;;;;;;-4.50;93.27;93769.50;1060746;56;20815;-86
2021/01/16 01:42:01;;;;;;;;;;;;;;;-4.52;92.58;93766.41;1060698;56;20174;-86
2021/01/16 01:43:01;;;;;;;;;;;;;;;-4.50;92.50;93761.66;1065151;55;20662;-84
2021/01/16 01:44:03;;;;;;;;;;;;;;;-4.53;92.87;93764.88;1062845;56;20162;-84
2021/01/16 01:45:08;;;;;;;;;;;;;;;-4.58;93.08;93760.56;1058728;56;20170;-85
2021/01/16 01:46:08;;;;;;;;;;;;;;;-4.61;93.22;93758.56;1060988;56;20209;-85
2021/01/16 01:47:10;;;;;;;;;;;;;;;-4.62;93.46;93770.06;1063191;56;20190;-86
2021/01/16 01:48:10;;;;;;;;;;;;;;;-4.66;93.48;93766.53;1062898;56;20158;-85
2021/01/16 01:49:11;;;;;;;;;;;;;;;-4.59;93.03;93761.66;1062826;56;20177;-85
2021/01/16 01:50:12;;;;;;;;;;;;;;;-4.62;93.31;93762.25;1060793;56;20174;-84
2021/01/16 01:51:14;;;;;;;;;;;;;;;-4.64;93.06;93759.19;1061057;56;20185;-85
2021/01/16 01:52:16;;;;;;;;;;;;;;;-4.62;93.26;93760.41;1063081;56;20174;-84
2021/01/16 01:53:19;;;;;;;;;;;;;;;-4.68;92.77;93763.47;1062957;56;21266;-85
2021/01/16 01:54:20;;;;;;;;;;;;;;;-4.66;93.26;93761.31;1063029;56;20185;-85
2021/01/16 01:55:21;;;;;;;;;;;;;;;-4.64;92.60;93759.94;1063010;55;20162;-85
2021/01/16 01:56:24;;;;;;;;;;;;;;;-4.63;93.36;93766.69;1065451;55;20185;-85
2021/01/16 01:57:25;;;;;;;;;;;;;;;-4.63;92.69;93758.87;1063301;56;20189;-87
2021/01/16 01:58:27;;;;;;;;;;;;;;;-4.64;93.48;93759.19;1062979;56;20181;-84
2021/01/16 01:59:33;;;;;;;;;;;;;;;-4.64;93.46;93765.16;1060918;56;20159;-85
2021/01/16 02:00:33;;;;;;;;;;;;;;;-4.64;93.67;93761.78;1061136;56;20162;-85
2021/01/16 02:01:38;;;;;;;;;;;;;;;-4.59;93.36;93764.25;1060918;56;20158;-84
2021/01/16 02:02:40;;;;;;;;;;;;;;;-4.62;93.34;93773.44;1060868;56;20162;-85
2021/01/16 02:03:42;;;;;;;;;;;;;;;-4.48;92.23;93764.72;1061027;56;20170;-83
2021/01/16 02:04:44;;;;;;;;;;;;;;;-4.57;92.97;93767.31;1063144;56;20233;-85
2021/01/16 02:05:45;;;;;;;;;;;;;;;-4.60;92.99;93765.34;1062919;56;20178;-86
2021/01/16 02:06:46;;;;;;;;;;;;;;;-4.54;92.56;93758.87;1065014;55;20188;-85
2021/01/16 02:07:46;;;;;;;;;;;;;;;-4.57;92.59;93764.72;1063735;56;20169;-87
2021/01/16 02:08:47;;;;;;;;;;;;;;;-4.53;92.54;93773.47;1062900;56;20173;-85
2021/01/16 02:09:48;;;;;;;;;;;;;;;-4.49;91.95;93757.97;1062972;56;20219;-85
2021/01/16 02:10:49;;;;;;;;;;;;;;;-4.57;92.12;93762.09;1063019;55;20165;-86
2021/01/16 02:11:49;;;;;;;;;;;;;;;-4.58;91.65;93765.78;1062710;56;20173;-84
2021/01/16 02:12:54;;;;;;;;;;;;;;;-4.51;91.71;93762.75;1065028;55;20194;-85
2021/01/16 02:13:54;;;;;;;;;;;;;;;-4.50;91.67;93761.66;1065073;55;20162;-86
2021/01/16 02:15:02;;;;;;;;;;;;;;;-4.53;92.15;93770.09;1062930;56;20169;-85
2021/01/16 02:16:30;;;;;;;;;;;;;;;-4.52;91.84;93767.19;1063631;55;20199;-86
2021/01/16 02:17:31;;;;;;;;;;;;;;;-4.61;92.53;93764.56;1065223;55;20266;-86
2021/01/16 02:18:42;;;;;;;;;;;;;;;-4.59;92.26;93766.87;1065184;55;20182;-85
2021/01/16 02:20:04;;;;;;;;;;;;;;;-4.62;93.09;93764.84;1065601;55;20594;-86
2021/01/16 02:21:06;;;;;;;;;;;;;;;-4.63;93.19;93758.87;1066211;55;20676;-84
2021/01/16 02:22:08;;;;;;;;;;;;;;;-4.60;92.07;93767.94;1063180;56;20230;-85
2021/01/16 02:23:11;;;;;;;;;;;;;;;-4.65;92.80;93765.47;1063138;56;20201;-85
2021/01/16 02:24:15;;;;;;;;;;;;;;;-4.64;92.77;93765.16;1063368;56;20214;-86
2021/01/16 02:25:21;;;;;;;;;;;;;;;-4.63;92.85;93764.09;1063355;55;20308;-85
2021/01/16 02:26:21;;;;;;;;;;;;;;;-4.56;92.82;93764.41;1063244;56;20163;-85
2021/01/16 02:27:57;;;;;;;;;;;;;;;-4.58;92.10;93774.37;1065337;55;20188;-84
2021/01/16 02:28:59;;;;;;;;;;;;;;;-4.53;91.83;93770.09;1056231;56;20261;-85
2021/01/16 02:29:59;;;;;;;;;;;;;;;-4.52;92.06;93767.19;1052120;56;20204;-86
2021/01/16 02:31:01;;;;;;;;;;;;;;;-4.60;92.38;93757.50;1053161;56;20176;-86
2021/01/16 02:32:03;;;;;;;;;;;;;;;-4.64;93.19;93764.41;1067543;55;20266;-86
2021/01/16 02:33:05;;;;;;;;;;;;;;;-4.66;92.47;93766.53;1069820;55;20189;-84
2021/01/16 02:34:06;;;;;;;;;;;;;;;-4.66;92.73;93774.34;1067484;55;20161;-87
2021/01/16 02:35:07;;;;;;;;;;;;;;;-4.61;92.72;93763.78;1063307;56;20735;-86
2021/01/16 02:36:27;;;;;;;;;;;;;;;-4.67;92.38;93757.94;1065451;55;20176;-86
2021/01/16 02:37:33;;;;;;;;;;;;;;;-4.65;92.04;93761.03;1063840;56;20666;-86
2021/01/16 02:38:49;;;;;;;;;;;;;;;-4.63;91.92;93766.69;1061303;56;20609;-86
2021/01/16 02:40:05;;;;;;;;;;;;;;;-4.62;92.21;93768.22;1063808;56;20619;-85
2021/01/16 02:41:17;;;;;;;;;;;;;;;-4.66;92.28;93762.09;1062218;56;20189;-86
2021/01/16 02:42:25;;;;;;;;;;;;;;;-4.68;93.15;93768.69;1064153;55;20223;-88
2021/01/16 02:43:33;;;;;;;;;;;;;;;-4.71;93.66;93771.91;1065652;55;20197;-85
2021/01/16 02:44:42;;;;;;;;;;;;;;;-4.73;93.69;93766.22;1065731;55;20192;-84
2021/01/16 02:45:46;;;;;;;;;;;;;;;-4.71;93.91;93771.91;1068074;55;20263;-84
2021/01/16 02:46:48;;;;;;;;;;;;;;;-4.69;93.79;93761.94;1065624;56;20213;-85
2021/01/16 02:47:57;;;;;;;;;;;;;;;-4.66;95.20;93769.13;1065583;55;20181;-84
2021/01/16 02:49:09;;;;;;;;;;;;;;;-4.63;94.14;93769.31;1065714;55;20153;-87
2021/01/16 02:50:10;;;;;;;;;;;;;;;-4.68;94.59;93772.06;1063910;56;20604;-85
2021/01/16 02:51:12;;;;;;;;;;;;;;;-4.58;93.20;93771.00;1063435;56;20234;-88
2021/01/16 02:52:18;;;;;;;;;;;;;;;-4.45;92.51;93766.72;1063830;55;20238;-85
2021/01/16 02:53:23;;;;;;;;;;;;;;;-4.56;92.73;93767.03;1065982;56;20157;-85
2021/01/16 02:54:24;;;;;;;;;;;;;;;-4.58;92.29;93763.19;1063949;56;20263;-84
2021/01/16 02:55:25;;;;;;;;;;;;;;;-4.53;92.27;93762.25;1061548;56;20197;-84
2021/01/16 02:56:28;;;;;;;;;;;;;;;-4.57;92.65;93775.13;1063624;56;20158;-85
2021/01/16 02:57:28;;;;;;;;;;;;;;;-4.47;92.48;93772.25;1065849;55;20162;-86
2021/01/16 02:58:29;;;;;;;;;;;;;;;-4.59;92.69;93772.09;1063459;56;20178;-85
2021/01/16 02:59:31;;;;;;;;;;;;;;;-4.54;92.95;93771.16;1063744;56;20150;-85
2021/01/16 03:00:31;;;;;;;;;;;;;;;-4.58;91.75;93763.94;1063789;56;20158;-86
2021/01/16 03:01:34;;;;;;;;;;;;;;;-4.62;91.94;93759.63;1065983;55;21070;-85
2021/01/16 03:02:34;;;;;;;;;;;;;;;-4.63;92.46;93758.87;1067869;55;20196;-85
2021/01/16 03:03:38;;;;;;;;;;;;;;;-4.63;93.01;93764.09;1063859;56;20154;-85
2021/01/16 03:04:38;;;;;;;;;;;;;;;-4.70;92.94;93768.97;1063881;56;20166;-85
2021/01/16 03:05:39;;;;;;;;;;;;;;;-4.77;92.93;93760.84;1061725;56;20154;-86
2021/01/16 03:06:44;;;;;;;;;;;;;;;-4.71;92.93;93759.63;1063698;56;20163;-85
2021/01/16 03:07:47;;;;;;;;;;;;;;;-4.69;92.37;93765.31;1063461;56;20737;-86
2021/01/16 03:08:48;;;;;;;;;;;;;;;-4.64;91.93;93761.78;1065920;55;20153;-84
2021/01/16 03:09:49;;;;;;;;;;;;;;;-4.58;91.45;93757.97;1065594;56;20158;-85
2021/01/16 03:10:50;;;;;;;;;;;;;;;-4.60;91.63;93762.72;1065791;55;20631;-84
2021/01/16 03:11:51;;;;;;;;;;;;;;;-4.65;92.63;93762.88;1063429;56;20181;-87
2021/01/16 03:12:52;;;;;;;;;;;;;;;-4.64;92.31;93756.59;1065748;55;20196;-85
2021/01/16 03:13:54;;;;;;;;;;;;;;;-4.66;92.67;93764.69;1065714;56;20579;-88
2021/01/16 03:14:57;;;;;;;;;;;;;;;-4.67;93.70;93762.41;1063535;56;20166;-86
2021/01/16 03:15:58;;;;;;;;;;;;;;;-4.70;93.07;93766.37;1063742;56;20265;-86
2021/01/16 03:17:08;;;;;;;;;;;;;;;-4.73;92.77;93761.00;1063574;56;20192;-84
2021/01/16 03:18:12;;;;;;;;;;;;;;;-4.73;92.78;93746.13;1065891;55;20239;-84
2021/01/16 03:19:18;;;;;;;;;;;;;;;-4.67;92.52;93752.72;1065820;56;20173;-86
2021/01/16 03:20:28;;;;;;;;;;;;;;;-4.67;92.25;93754.56;1064171;55;20169;-87
2021/01/16 03:21:29;;;;;;;;;;;;;;;-4.67;92.38;93752.72;1063801;56;20708;-85
2021/01/16 03:22:29;;;;;;;;;;;;;;;-4.69;93.16;93752.28;1063559;56;20154;-85
2021/01/16 03:23:33;;;;;;;;;;;;;;;-4.68;92.36;93748.59;1065599;56;20172;-85
2021/01/16 03:24:33;;;;;;;;;;;;;;;-4.69;93.44;93744.44;1063610;56;20173;-86
2021/01/16 03:25:34;;;;;;;;;;;;;;;-4.65;92.88;93745.38;1063193;56;20677;-84
2021/01/16 03:26:35;;;;;;;;;;;;;;;-4.60;92.38;93742.63;1063066;56;20251;-86
2021/01/16 03:27:35;;;;;;;;;;;;;;;-4.55;92.02;93752.16;1060852;56;20159;-85
2021/01/16 03:28:36;;;;;;;;;;;;;;;-4.59;91.69;93743.37;1061042;56;20177;-85
2021/01/16 03:29:36;;;;;;;;;;;;;;;-4.57;91.21;93747.22;1065515;56;20169;-85
2021/01/16 03:30:37;;;;;;;;;;;;;;;-4.60;91.49;93740.03;1065380;56;20157;-85
2021/01/16 03:31:38;;;;;;;;;;;;;;;-4.66;91.33;93740.44;1061103;56;20166;-85
2021/01/16 03:32:39;;;;;;;;;;;;;;;-4.66;91.66;93743.81;1063369;56;20659;-84
2021/01/16 03:33:39;;;;;;;;;;;;;;;-4.65;92.17;93744.63;1065296;55;20192;-86
2021/01/16 03:34:41;;;;;;;;;;;;;;;-4.62;92.13;93746.59;1063157;56;20173;-84
2021/01/16 03:35:42;;;;;;;;;;;;;;;-4.64;92.26;93743.53;1063886;55;20666;-85
2021/01/16 03:36:42;;;;;;;;;;;;;;;-4.59;92.30;93748.59;1063678;56;20177;-85
2021/01/16 03:37:44;;;;;;;;;;;;;;;-4.60;91.92;93747.06;1063784;56;20170;-85
2021/01/16 03:38:44;;;;;;;;;;;;;;;-4.68;92.32;93745.97;1063494;56;20627;-86
2021/01/16 03:39:45;;;;;;;;;;;;;;;-4.59;91.77;93746.00;1061551;56;20182;-87
2021/01/16 03:40:47;;;;;;;;;;;;;;;-4.63;91.37;93751.06;1065670;55;20170;-85
2021/01/16 03:41:47;;;;;;;;;;;;;;;-4.66;92.99;93753.50;1067775;55;20177;-85
2021/01/16 03:42:48;;;;;;;;;;;;;;;-4.68;92.97;93745.97;1063653;56;20154;-86
2021/01/16 03:43:48;;;;;;;;;;;;;;;-4.62;92.41;93757.03;1061290;56;20234;-87
2021/01/16 03:44:49;;;;;;;;;;;;;;;-4.66;92.80;93756.88;1063876;56;20158;-83
2021/01/16 03:45:51;;;;;;;;;;;;;;;-4.69;92.74;93760.09;1067846;55;20327;-85
2021/01/16 03:46:51;;;;;;;;;;;;;;;-4.62;92.93;93757.03;1068206;55;20201;-85
2021/01/16 03:47:52;;;;;;;;;;;;;;;-4.68;92.65;93756.41;1066178;55;20243;-86
2021/01/16 03:48:52;;;;;;;;;;;;;;;-4.71;92.49;93759.63;1065888;55;20179;-86
2021/01/16 03:49:53;;;;;;;;;;;;;;;-4.73;92.50;93753.19;1068370;55;20672;-84
2021/01/16 03:50:54;;;;;;;;;;;;;;;-4.65;92.01;93763.63;1066188;55;20173;-86
2021/01/16 03:51:54;;;;;;;;;;;;;;;-4.66;91.78;93764.69;1064080;56;20186;-84
2021/01/16 03:52:55;;;;;;;;;;;;;;;-4.59;91.88;93761.66;1063978;56;20177;-86
2021/01/16 03:53:55;;;;;;;;;;;;;;;-4.65;92.22;93752.44;1061908;56;20171;-86
2021/01/16 03:54:56;;;;;;;;;;;;;;;-4.64;92.11;93767.00;1064023;56;20185;-87
2021/01/16 03:55:56;;;;;;;;;;;;;;;-4.69;92.49;93767.16;1066463;55;20162;-86
2021/01/16 03:56:57;;;;;;;;;;;;;;;-4.67;92.79;93767.59;1063701;56;20262;-86
2021/01/16 03:57:59;;;;;;;;;;;;;;;-4.71;93.01;93764.06;1061633;56;20155;-86
2021/01/16 03:58:59;;;;;;;;;;;;;;;-4.66;94.28;93756.88;1061678;56;20181;-85
2021/01/16 04:00:00;;;;;;;;;;;;;;;-4.69;93.09;93762.72;1065978;55;20649;-86
2021/01/16 04:01:01;;;;;;;;;;;;;;;-4.75;92.82;93756.09;1063780;56;20181;-86
2021/01/16 04:02:03;;;;;;;;;;;;;;;-4.73;92.62;93763.63;1062114;56;20269;-86
2021/01/16 04:03:03;;;;;;;;;;;;;;;-4.64;92.84;93757.34;1061984;56;20228;-85
2021/01/16 04:04:04;;;;;;;;;;;;;;;-4.66;91.91;93750.87;1066366;55;20181;-85
2021/01/16 04:05:07;;;;;;;;;;;;;;;-4.65;93.13;93758.44;1066441;55;20161;-86
2021/01/16 04:06:13;;;;;;;;;;;;;;;-4.75;92.95;93758.69;1066552;55;20221;-86
2021/01/16 04:07:14;;;;;;;;;;;;;;;-4.71;92.56;93754.41;1064459;56;20186;-86
2021/01/16 04:08:15;;;;;;;;;;;;;;;-4.69;92.82;93762.72;1061879;56;20127;-85
2021/01/16 04:09:15;;;;;;;;;;;;;;;-4.69;92.68;93751.50;1061788;56;20212;-86
2021/01/16 04:10:16;;;;;;;;;;;;;;;-4.74;93.44;93757.63;1063776;56;20630;-84
2021/01/16 04:11:16;;;;;;;;;;;;;;;-4.73;92.91;93751.34;1063773;56;20700;-85
2021/01/16 04:12:17;;;;;;;;;;;;;;;-4.72;92.77;93759.94;1061718;56;20185;-86
2021/01/16 04:13:17;;;;;;;;;;;;;;;-4.71;92.69;93759.63;1064016;56;20150;-86
2021/01/16 04:14:17;;;;;;;;;;;;;;;-4.72;92.36;93755.47;1064182;56;20296;-86
2021/01/16 04:15:18;;;;;;;;;;;;;;;-4.72;92.66;93762.53;1063946;56;20154;-86
2021/01/16 04:16:18;;;;;;;;;;;;;;;-4.75;92.98;93765.75;1066211;55;20172;-86
2021/01/16 04:17:20;;;;;;;;;;;;;;;-4.76;92.75;93759.00;1064193;56;20205;-85
2021/01/16 04:18:20;;;;;;;;;;;;;;;-4.73;92.30;93753.19;1064141;56;20580;-85
2021/01/16 04:19:20;;;;;;;;;;;;;;;-4.72;92.53;93755.47;1063953;56;20147;-85
2021/01/16 04:20:21;;;;;;;;;;;;;;;-4.69;92.09;93762.72;1064054;56;20170;-86
2021/01/16 04:21:21;;;;;;;;;;;;;;;-4.66;92.39;93754.25;1064239;56;20185;-86
2021/01/16 04:22:22;;;;;;;;;;;;;;;-4.67;92.03;93757.19;1061984;56;20182;-86
2021/01/16 04:23:24;;;;;;;;;;;;;;;-4.68;92.26;93760.88;1066254;55;20161;-87
2021/01/16 04:24:25;;;;;;;;;;;;;;;-4.67;91.73;93752.72;1064177;56;20162;-86
2021/01/16 04:25:27;;;;;;;;;;;;;;;-4.69;92.19;93759.34;1061943;56;20170;-86
2021/01/16 04:26:29;;;;;;;;;;;;;;;-4.68;92.03;93763.47;1064370;56;20188;-86
2021/01/16 04:27:30;;;;;;;;;;;;;;;-4.73;91.86;93763.63;1061882;56;20726;-86
2021/01/16 04:28:31;;;;;;;;;;;;;;;-4.82;92.23;93758.37;1062037;56;20367;-86
2021/01/16 04:29:32;;;;;;;;;;;;;;;-4.79;92.54;93755.16;1063781;56;20171;-86
2021/01/16 04:30:32;;;;;;;;;;;;;;;-4.82;92.28;93751.31;1063733;56;20170;-86
2021/01/16 04:31:33;;;;;;;;;;;;;;;-4.81;92.77;93754.69;1061751;56;20166;-83
2021/01/16 04:32:34;;;;;;;;;;;;;;;-4.82;92.69;93759.16;1061847;56;20189;-85
2021/01/16 04:33:35;;;;;;;;;;;;;;;-4.78;92.64;93755.91;1061693;56;21044;-85
2021/01/16 04:34:36;;;;;;;;;;;;;;;-4.82;92.88;93761.00;1062028;56;20313;-85
2021/01/16 04:35:36;;;;;;;;;;;;;;;-4.78;93.58;93761.94;1061909;56;20171;-86
2021/01/16 04:36:37;;;;;;;;;;;;;;;-4.76;92.76;93751.94;1062149;56;20185;-85
2021/01/16 04:37:37;;;;;;;;;;;;;;;-4.74;92.55;93764.66;1064050;56;20158;-84
2021/01/16 04:38:38;;;;;;;;;;;;;;;-4.67;92.21;93770.97;1064043;56;20173;-86
2021/01/16 04:39:40;;;;;;;;;;;;;;;-4.68;92.20;93769.44;1066339;55;20149;-85
2021/01/16 04:40:41;;;;;;;;;;;;;;;-4.72;92.48;93767.75;1064434;56;20662;-86
2021/01/16 04:41:45;;;;;;;;;;;;;;;-4.66;91.71;93767.28;1064003;55;20209;-86
2021/01/16 04:42:46;;;;;;;;;;;;;;;-4.81;92.57;93763.28;1063864;56;20154;-86
2021/01/16 04:43:48;;;;;;;;;;;;;;;-4.84;93.13;93765.72;1061672;56;20173;-86
2021/01/16 04:44:49;;;;;;;;;;;;;;;-4.95;92.82;93759.25;1059513;56;20155;-85
2021/01/16 04:45:50;;;;;;;;;;;;;;;-4.91;93.10;93754.97;1059479;56;20163;-85
2021/01/16 04:46:51;;;;;;;;;;;;;;;-4.94;93.20;93755.59;1061818;56;20197;-86
2021/01/16 04:47:56;;;;;;;;;;;;;;;-4.88;92.95;93755.12;1064362;56;20249;-86
2021/01/16 04:48:59;;;;;;;;;;;;;;;-4.81;92.92;93752.09;1062177;56;20222;-86
2021/01/16 04:50:01;;;;;;;;;;;;;;;-4.84;92.53;93756.06;1062490;56;20163;-87
2021/01/16 04:51:04;;;;;;;;;;;;;;;-4.87;92.57;93753.31;1062103;56;20170;-85
2021/01/16 04:52:06;;;;;;;;;;;;;;;-4.86;92.81;93747.03;1062374;56;20155;-86
2021/01/16 04:53:08;;;;;;;;;;;;;;;-4.92;92.99;93745.59;1066390;55;20165;-87
2021/01/16 04:54:12;;;;;;;;;;;;;;;-4.95;92.78;93746.22;1064235;56;20243;-86
2021/01/16 04:55:14;;;;;;;;;;;;;;;-4.97;93.21;93746.50;1062335;56;20167;-85
2021/01/16 04:56:16;;;;;;;;;;;;;;;-4.93;93.22;93750.06;1060359;56;20163;-85
2021/01/16 04:57:16;;;;;;;;;;;;;;;-4.97;93.28;93753.56;1064709;56;20158;-85
2021/01/16 04:58:17;;;;;;;;;;;;;;;-4.98;93.11;93749.44;1068950;55;20682;-86
2021/01/16 04:59:18;;;;;;;;;;;;;;;-4.95;92.65;93748.84;1062236;56;20245;-85
2021/01/16 05:00:19;;;;;;;;;;;;;;;-4.92;92.67;93750.81;1062571;56;20174;-85
2021/01/16 05:01:20;;;;;;;;;;;;;;;-4.84;92.29;93755.28;1062339;56;20162;-84
2021/01/16 05:02:24;;;;;;;;;;;;;;;-4.82;92.23;93756.53;1062317;56;20177;-85
2021/01/16 05:03:27;;;;;;;;;;;;;;;-4.82;92.14;93750.56;1060246;56;20181;-84
2021/01/16 05:04:30;;;;;;;;;;;;;;;-4.82;92.09;93753.16;1062329;56;21018;-86
2021/01/16 05:05:30;;;;;;;;;;;;;;;-4.86;92.04;93747.03;1064417;56;20162;-86
2021/01/16 05:06:37;;;;;;;;;;;;;;;-4.94;92.08;93742.53;1064602;56;20193;-87
2021/01/16 05:07:38;;;;;;;;;;;;;;;-4.94;92.05;93745.91;1064529;56;20158;-86
2021/01/16 05:08:39;;;;;;;;;;;;;;;-4.98;92.58;93744.22;1063431;55;20162;-87
2021/01/16 05:09:42;;;;;;;;;;;;;;;-5.08;92.41;93734.84;1066666;55;20692;-86
2021/01/16 05:10:43;;;;;;;;;;;;;;;-5.13;93.26;93740.19;1064812;56;20158;-86
2021/01/16 05:11:48;;;;;;;;;;;;;;;-5.24;93.06;93738.91;1064770;56;20095;-86
2021/01/16 05:13:03;;;;;;;;;;;;;;;-5.26;92.71;93739.22;1066809;55;20259;-85
2021/01/16 05:14:06;;;;;;;;;;;;;;;-5.25;92.86;93734.78;1062787;56;20751;-86
2021/01/16 05:15:18;;;;;;;;;;;;;;;-5.19;92.68;93742.16;1062545;56;20189;-84
2021/01/16 05:16:24;;;;;;;;;;;;;;;-5.18;92.41;93748.12;1065047;56;20173;-86
2021/01/16 05:17:25;;;;;;;;;;;;;;;-5.23;92.62;93746.41;1065158;56;20693;-86
2021/01/16 05:18:26;;;;;;;;;;;;;;;-5.17;92.58;93750.44;1064999;56;20217;-85
2021/01/16 05:19:31;;;;;;;;;;;;;;;-5.21;92.02;93743.53;1062789;56;20226;-85
2021/01/16 05:20:32;;;;;;;;;;;;;;;-5.25;92.23;93743.37;1065249;56;20209;-85
2021/01/16 05:21:34;;;;;;;;;;;;;;;-5.38;92.25;93744.22;1062885;56;20189;-86
2021/01/16 05:22:35;;;;;;;;;;;;;;;-5.44;92.77;93737.63;1060850;56;20174;-86
2021/01/16 05:23:40;;;;;;;;;;;;;;;-5.48;93.10;93747.09;1060791;56;20150;-86
2021/01/16 05:24:40;;;;;;;;;;;;;;;-5.55;93.02;93744.16;1065278;55;20189;-86